createdAt,value
2018-09-19T00:02:00.738Z,4.23
2018-09-19T00:04:35.647Z,4.10
2018-09-19T00:07:10.522Z,4.77
2018-09-19T00:09:45.591Z,4.60
2018-09-19T00:12:20.558Z,4.53
2018-09-19T00:14:55.344Z,4.07
2018-09-19T00:17:31.046Z,4.40
2018-09-19T00:20:06.483Z,5.10
2018-09-19T00:22:41.519Z,3.97
2018-09-19T00:25:16.498Z,4.97
2018-09-19T00:27:51.212Z,5.03
2018-09-19T00:30:26.073Z,4.57
2018-09-19T00:33:00.873Z,5.00
2018-09-19T00:35:35.897Z,4.90
2018-09-19T00:38:10.674Z,4.60
2018-09-19T00:40:45.484Z,4.40
2018-09-19T00:43:20.488Z,4.87
2018-09-19T00:45:55.429Z,4.67
2018-09-19T00:48:30.294Z,4.90
2018-09-19T00:51:05.424Z,5.03
2018-09-19T00:53:41.019Z,4.53
2018-09-19T00:56:16.482Z,4.67
2018-09-19T00:58:51.116Z,4.43
2018-09-19T01:01:25.973Z,4.57
2018-09-19T01:04:00.884Z,5.20
2018-09-19T01:06:35.884Z,5.10
2018-09-19T01:09:10.953Z,4.77
2018-09-19T01:11:45.715Z,9.37
2018-09-19T01:14:20.543Z,4.30
2018-09-19T01:16:55.354Z,4.10
2018-09-19T01:19:30.208Z,4.30
2018-09-19T01:22:05.141Z,4.43
2018-09-19T01:24:40.401Z,4.37
2018-09-19T01:27:16.091Z,4.07
2018-09-19T01:29:51.137Z,4.03
2018-09-19T01:32:26.316Z,4.20
2018-09-19T01:35:02.715Z,4.60
2018-09-19T01:37:38.176Z,4.57
2018-09-19T01:40:12.881Z,4.43
2018-09-19T01:42:47.875Z,4.33
2018-09-19T01:45:22.912Z,4.77
2018-09-19T01:47:57.802Z,4.57
2018-09-19T01:50:32.659Z,4.63
2018-09-19T01:53:07.499Z,4.57
2018-09-19T01:55:42.249Z,5.20
2018-09-19T01:58:17.151Z,4.40
2018-09-19T02:00:58.816Z,4.30
2018-09-19T02:03:33.998Z,5.20
2018-09-19T02:06:08.964Z,4.70
2018-09-19T02:08:44.205Z,4.80
2018-09-19T02:11:19.551Z,4.40
2018-09-19T02:13:54.632Z,4.30
2018-09-19T02:16:29.678Z,4.40
2018-09-19T02:19:04.690Z,4.53
2018-09-19T02:21:39.733Z,3.87
2018-09-19T02:24:14.882Z,4.30
2018-09-19T02:26:49.811Z,3.73
2018-09-19T02:29:24.938Z,4.90
2018-09-19T02:31:59.986Z,4.13
2018-09-19T02:34:34.814Z,4.23
2018-09-19T02:37:09.704Z,4.20
2018-09-19T02:39:44.632Z,4.30
2018-09-19T02:42:19.653Z,4.43
2018-09-19T02:44:54.382Z,4.30
2018-09-19T02:47:29.109Z,4.40
2018-09-19T02:50:04.035Z,3.90
2018-09-19T02:52:38.833Z,3.73
2018-09-19T02:55:13.601Z,4.23
2018-09-19T02:57:48.514Z,4.20
2018-09-19T03:00:23.346Z,4.07
2018-09-19T03:02:58.687Z,4.47
2018-09-19T03:05:33.610Z,3.83
2018-09-19T03:08:08.832Z,4.30
2018-09-19T03:10:44.348Z,4.67
2018-09-19T03:13:18.981Z,4.60
2018-09-19T03:15:53.810Z,4.93
2018-09-19T03:18:28.576Z,4.60
2018-09-19T03:21:03.408Z,4.70
2018-09-19T03:23:38.234Z,4.03
2018-09-19T03:26:12.976Z,4.47
2018-09-19T03:28:47.796Z,3.80
2018-09-19T03:31:22.812Z,4.23
2018-09-19T03:33:57.655Z,4.43
2018-09-19T03:36:32.390Z,4.23
2018-09-19T03:39:09.527Z,4.30
2018-09-19T03:41:44.268Z,4.30
2018-09-19T03:44:19.225Z,4.93
2018-09-19T03:46:54.138Z,4.40
2018-09-19T03:49:29.464Z,5.30
2018-09-19T03:52:04.401Z,4.60
2018-09-19T03:54:39.445Z,5.03
2018-09-19T03:57:14.474Z,4.93
2018-09-19T03:59:49.883Z,4.30
2018-09-19T04:02:24.559Z,5.73
2018-09-19T04:04:59.428Z,4.67
2018-09-19T04:07:34.506Z,4.10
2018-09-19T04:10:09.269Z,4.20
2018-09-19T04:12:44.164Z,4.23
2018-09-19T04:15:19.015Z,4.13
2018-09-19T04:17:54.346Z,4.73
2018-09-19T04:20:29.305Z,4.77
2018-09-19T04:23:04.144Z,4.60
2018-09-19T04:25:39.032Z,5.00
2018-09-19T04:28:13.701Z,5.30
2018-09-19T04:30:48.607Z,5.93
2018-09-19T04:33:23.631Z,4.73
2018-09-19T04:35:58.391Z,4.80
2018-09-19T04:38:33.373Z,4.97
2018-09-19T04:41:08.231Z,4.13
2018-09-19T04:43:43.039Z,4.83
2018-09-19T04:46:17.982Z,5.00
2018-09-19T04:48:52.999Z,5.30
2018-09-19T04:51:27.773Z,7.43
2018-09-19T04:54:02.861Z,4.70
2018-09-19T04:56:38.287Z,4.93
2018-09-19T04:59:13.141Z,4.87
2018-09-19T05:01:48.305Z,6.07
2018-09-19T05:04:23.034Z,5.00
2018-09-19T05:06:58.009Z,4.73
2018-09-19T05:09:32.908Z,6.30
2018-09-19T05:12:07.830Z,8.47
2018-09-19T05:14:42.555Z,8.63
2018-09-19T05:17:17.299Z,9.30
2018-09-19T05:19:52.042Z,8.47
2018-09-19T05:22:26.837Z,9.20
2018-09-19T05:25:01.594Z,6.33
2018-09-19T05:27:36.222Z,5.27
2018-09-19T05:30:10.925Z,5.03
2018-09-19T05:32:45.759Z,6.30
2018-09-19T05:35:21.577Z,4.40
2018-09-19T05:37:56.504Z,4.20
2018-09-19T05:40:31.279Z,7.77
2018-09-19T05:43:06.071Z,5.07
2018-09-19T05:45:40.869Z,5.67
2018-09-19T05:48:15.909Z,5.27
2018-09-19T05:50:51.380Z,4.60
2018-09-19T05:53:26.045Z,5.83
2018-09-19T05:56:00.887Z,4.73
2018-09-19T05:58:35.881Z,5.03
2018-09-19T06:01:10.654Z,6.10
2018-09-19T06:03:45.434Z,4.80
2018-09-19T06:06:20.222Z,4.87
2018-09-19T06:08:55.283Z,4.53
2018-09-19T06:11:29.900Z,5.03
2018-09-19T06:14:04.770Z,5.17
2018-09-19T06:16:39.644Z,4.93
2018-09-19T06:19:14.441Z,4.53
2018-09-19T06:21:49.768Z,4.47
2018-09-19T06:24:24.394Z,4.27
2018-09-19T06:26:59.813Z,4.53
2018-09-19T06:29:34.641Z,4.23
2018-09-19T06:32:09.358Z,4.43
2018-09-19T06:34:44.393Z,4.23
2018-09-19T06:37:19.449Z,4.23
2018-09-19T06:39:54.233Z,4.50
2018-09-19T06:42:29.396Z,4.93
2018-09-19T06:45:04.288Z,4.40
2018-09-19T06:47:38.969Z,4.50
2018-09-19T06:50:13.929Z,4.80
2018-09-19T06:52:48.738Z,4.97
2018-09-19T06:55:23.613Z,4.80
2018-09-19T06:57:58.843Z,4.80
2018-09-19T07:00:33.663Z,4.67
2018-09-19T07:03:08.764Z,5.03
2018-09-19T07:05:43.636Z,4.50
2018-09-19T07:08:18.624Z,4.30
2018-09-19T07:10:53.460Z,5.10
2018-09-19T07:13:28.201Z,4.00
2018-09-19T07:16:03.041Z,3.97
2018-09-19T07:18:37.658Z,4.40
2018-09-19T07:21:12.674Z,4.10
2018-09-19T07:23:47.622Z,3.97
2018-09-19T07:26:22.599Z,4.07
2018-09-19T07:28:58.130Z,4.20
2018-09-19T07:31:32.749Z,4.00
2018-09-19T07:34:07.547Z,3.90
2018-09-19T07:36:42.391Z,3.77
2018-09-19T07:39:17.408Z,3.70
2018-09-19T07:41:53.239Z,3.95
2018-09-19T07:44:28.559Z,3.83
2018-09-19T07:47:04.156Z,4.33
2018-09-19T07:49:39.593Z,4.40
2018-09-19T07:52:14.939Z,4.65
2018-09-19T07:54:50.308Z,4.08
2018-09-19T07:57:25.656Z,19.05
2018-09-19T08:00:01.179Z,20.10
2018-09-19T08:02:36.652Z,4.35
2018-09-19T08:05:12.153Z,4.25
2018-09-19T08:07:47.925Z,3.72
2018-09-19T08:10:23.574Z,3.75
2018-09-19T08:13:00.224Z,3.50
2018-09-19T08:15:35.505Z,5.33
2018-09-19T08:18:10.879Z,3.80
2018-09-19T08:20:46.258Z,4.10
2018-09-19T08:23:22.139Z,3.58
2018-09-19T08:25:57.443Z,3.70
2018-09-19T08:28:32.862Z,3.35
2018-09-19T08:31:08.675Z,4.60
2018-09-19T08:33:43.918Z,3.47
2018-09-19T08:36:19.744Z,5.30
2018-09-19T08:38:54.997Z,3.70
2018-09-19T08:41:30.466Z,3.55
2018-09-19T08:44:12.664Z,3.50
2018-09-19T08:46:48.804Z,3.98
2018-09-19T08:49:24.070Z,3.50
2018-09-19T08:51:59.291Z,3.52
2018-09-19T08:54:34.679Z,3.80
2018-09-19T08:57:10.254Z,3.90
2018-09-19T08:59:45.530Z,4.23
2018-09-19T09:02:20.641Z,3.47
2018-09-19T09:04:55.670Z,3.90
2018-09-19T09:07:30.845Z,3.50
2018-09-19T09:10:06.289Z,3.80
2018-09-19T09:12:41.273Z,3.60
2018-09-19T09:15:16.420Z,3.40
2018-09-19T09:17:51.477Z,4.00
2018-09-19T09:20:26.640Z,3.90
2018-09-19T09:23:01.749Z,3.63
2018-09-19T09:25:36.661Z,3.87
2018-09-19T09:28:12.052Z,4.10
2018-09-19T09:30:47.853Z,3.53
2018-09-19T09:33:22.875Z,3.70
2018-09-19T09:35:58.019Z,3.50
2018-09-19T09:38:33.245Z,3.87
2018-09-19T09:41:08.794Z,3.83
2018-09-19T09:43:43.744Z,3.97
2018-09-19T09:46:18.921Z,3.60
2018-09-19T09:48:54.327Z,3.60
2018-09-19T09:51:30.046Z,3.47
2018-09-19T09:54:05.095Z,3.80
2018-09-19T09:56:40.449Z,3.60
2018-09-19T09:59:15.686Z,4.20
2018-09-19T10:01:51.014Z,3.80
2018-09-19T10:04:26.178Z,21.80
2018-09-19T10:07:01.171Z,3.90
2018-09-19T10:09:36.225Z,4.07
2018-09-19T10:12:11.354Z,3.60
2018-09-19T10:14:46.366Z,4.17
2018-09-19T10:17:22.120Z,3.70
2018-09-19T10:19:57.162Z,4.20
2018-09-19T10:22:32.297Z,4.17
2018-09-19T10:25:07.321Z,4.03
2018-09-19T10:27:42.506Z,3.70
2018-09-19T10:30:17.741Z,3.70
2018-09-19T10:32:53.754Z,4.10
2018-09-19T10:35:28.978Z,3.60
2018-09-19T10:38:04.231Z,3.93
2018-09-19T10:40:39.266Z,4.63
2018-09-19T10:43:14.420Z,4.03
2018-09-19T10:45:49.589Z,3.97
2018-09-19T10:48:25.025Z,3.70
2018-09-19T10:51:00.721Z,3.90
2018-09-19T10:53:35.674Z,3.80
2018-09-19T10:56:10.696Z,4.13
2018-09-19T10:58:45.835Z,4.50
2018-09-19T11:01:20.981Z,4.07
2018-09-19T11:03:56.138Z,4.13
2018-09-19T11:06:31.359Z,4.40
2018-09-19T11:09:09.376Z,4.20
2018-09-19T11:11:45.099Z,4.07
2018-09-19T11:14:20.404Z,4.13
2018-09-19T11:16:55.473Z,3.73
2018-09-19T11:19:30.631Z,3.97
2018-09-19T11:22:05.690Z,4.80
2018-09-19T11:24:40.833Z,4.23
2018-09-19T11:27:16.227Z,4.00
2018-09-19T11:29:51.182Z,3.90
2018-09-19T11:32:26.601Z,4.60
2018-09-19T11:35:01.781Z,3.83
2018-09-19T11:37:36.789Z,4.27
2018-09-19T11:40:11.942Z,4.63
2018-09-19T11:42:47.553Z,3.90
2018-09-19T11:45:23.606Z,3.97
2018-09-19T11:47:58.714Z,4.10
2018-09-19T11:50:33.887Z,4.50
2018-09-19T11:53:13.291Z,4.30
2018-09-19T11:55:48.207Z,4.77
2018-09-19T11:58:23.810Z,4.60
2018-09-19T12:00:59.385Z,4.83
2018-09-19T12:03:34.490Z,4.63
2018-09-19T12:06:09.478Z,5.27
2018-09-19T12:08:44.637Z,7.33
2018-09-19T12:11:19.873Z,6.20
2018-09-19T12:13:54.934Z,5.50
2018-09-19T12:16:30.022Z,5.77
2018-09-19T12:19:05.588Z,6.37
2018-09-19T12:21:40.824Z,5.28
2018-09-19T12:24:16.255Z,5.40
2018-09-19T12:26:51.483Z,6.22
2018-09-19T12:29:27.340Z,4.90
2018-09-19T12:32:02.458Z,4.92
2018-09-19T12:34:37.727Z,4.87
2018-09-19T12:37:13.199Z,5.47
2018-09-19T12:39:48.595Z,4.75
2018-09-19T12:42:24.753Z,5.50
2018-09-19T12:45:00.162Z,4.92
2018-09-19T12:47:35.887Z,4.92
2018-09-19T12:50:12.120Z,4.67
2018-09-19T12:52:47.403Z,5.62
2018-09-19T12:55:22.756Z,4.62
2018-09-19T12:57:58.138Z,4.70
2018-09-19T13:00:33.575Z,4.30
2018-09-19T13:03:08.886Z,4.92
2018-09-19T13:05:44.354Z,4.37
2018-09-19T13:08:19.745Z,4.10
2018-09-19T13:10:55.256Z,4.58
2018-09-19T13:13:30.769Z,4.30
2018-09-19T13:16:05.874Z,4.87
2018-09-19T13:18:40.912Z,4.37
2018-09-19T13:21:16.078Z,4.63
2018-09-19T13:23:51.138Z,4.67
2018-09-19T13:26:26.150Z,4.20
2018-09-19T13:29:01.363Z,4.37
2018-09-19T13:31:36.706Z,4.30
2018-09-19T13:34:12.366Z,4.17
2018-09-19T13:36:48.204Z,4.27
2018-09-19T13:39:23.274Z,3.87
2018-09-19T13:41:58.388Z,3.67
2018-09-19T13:44:34.005Z,3.73
2018-09-19T13:47:09.124Z,3.90
2018-09-19T13:49:47.823Z,3.50
2018-09-19T13:52:23.167Z,3.70
2018-09-19T13:54:58.227Z,3.83
2018-09-19T13:57:33.654Z,4.00
2018-09-19T14:00:09.090Z,3.60
2018-09-19T14:02:44.815Z,4.10
2018-09-19T14:05:19.939Z,4.30
2018-09-19T14:07:54.996Z,3.97
2018-09-19T14:10:30.015Z,3.87
2018-09-19T14:13:06.338Z,4.23
2018-09-19T14:15:41.258Z,4.20
2018-09-19T14:18:16.385Z,4.10
2018-09-19T14:20:52.442Z,3.97
2018-09-19T14:23:27.310Z,3.73
2018-09-19T14:26:02.484Z,3.90
2018-09-19T14:28:37.925Z,4.40
2018-09-19T14:31:13.279Z,4.50
2018-09-19T14:33:48.234Z,4.70
2018-09-19T14:36:23.343Z,4.30
2018-09-19T14:38:58.781Z,4.37
2018-09-19T14:41:33.989Z,3.83
2018-09-19T14:44:09.762Z,4.43
2018-09-19T14:46:45.008Z,4.20
2018-09-19T14:49:20.091Z,4.03
2018-09-19T14:51:55.029Z,4.13
2018-09-19T14:54:30.146Z,4.77
2018-09-19T14:57:05.786Z,4.20
2018-09-19T14:59:41.145Z,4.30
2018-09-19T15:02:16.382Z,3.90
2018-09-19T15:04:51.603Z,4.90
2018-09-19T15:07:27.125Z,4.40
2018-09-19T15:10:02.175Z,4.20
2018-09-19T15:12:37.258Z,4.47
2018-09-19T15:15:12.527Z,4.67
2018-09-19T15:17:47.636Z,5.07
2018-09-19T15:20:23.518Z,4.60
2018-09-19T15:22:59.089Z,4.47
2018-09-19T15:25:34.038Z,4.63
2018-09-19T15:28:09.684Z,4.97
2018-09-19T15:30:45.055Z,5.07
2018-09-19T15:33:20.196Z,4.93
2018-09-19T15:35:55.375Z,4.93
2018-09-19T15:38:31.432Z,4.97
2018-09-19T15:41:07.305Z,5.20
2018-09-19T15:43:43.065Z,4.55
2018-09-19T15:46:18.438Z,4.70
2018-09-19T15:48:53.856Z,4.83
2018-09-19T15:51:29.499Z,5.33
2018-09-19T15:54:05.032Z,4.50
2018-09-19T15:56:40.596Z,4.95
2018-09-19T15:59:15.833Z,6.60
2018-09-19T16:01:51.449Z,5.08
2018-09-19T16:04:26.803Z,5.33
2018-09-19T16:07:02.656Z,5.80
2018-09-19T16:09:38.071Z,5.40
2018-09-19T16:12:13.695Z,4.95
2018-09-19T16:14:49.054Z,5.20
2018-09-19T16:17:24.357Z,4.85
2018-09-19T16:19:59.945Z,5.10
2018-09-19T16:22:35.165Z,5.37
2018-09-19T16:25:10.444Z,5.23
2018-09-19T16:27:46.135Z,5.90
2018-09-19T16:30:21.267Z,5.90
2018-09-19T16:32:56.761Z,5.27
2018-09-19T16:35:31.892Z,4.70
2018-09-19T16:38:07.976Z,5.53
2018-09-19T16:40:45.313Z,5.30
2018-09-19T16:43:20.886Z,5.40
2018-09-19T16:45:56.458Z,4.97
2018-09-19T16:48:31.828Z,5.80
2018-09-19T16:51:07.272Z,5.87
2018-09-19T16:53:42.342Z,6.23
2018-09-19T16:56:17.446Z,4.83
2018-09-19T16:58:52.776Z,5.20
2018-09-19T17:01:28.860Z,6.10
2018-09-19T17:04:04.377Z,5.35
2018-09-19T17:06:40.399Z,4.83
2018-09-19T17:09:17.009Z,5.20
2018-09-19T17:11:52.487Z,5.42
2018-09-19T17:14:27.894Z,5.40
2018-09-19T17:17:03.495Z,4.80
2018-09-19T17:19:39.018Z,5.22
2018-09-19T17:22:14.668Z,6.45
2018-09-19T17:24:50.464Z,5.60
2018-09-19T17:27:25.709Z,6.12
2018-09-19T17:30:01.291Z,5.80
2018-09-19T17:32:36.650Z,5.58
2018-09-19T17:35:12.748Z,5.65
2018-09-19T17:37:48.245Z,5.62
2018-09-19T17:40:24.282Z,6.45
2018-09-19T17:43:00.306Z,6.30
2018-09-19T17:45:35.562Z,5.87
2018-09-19T17:48:10.809Z,5.67
2018-09-19T17:50:46.703Z,5.55
2018-09-19T17:53:21.976Z,6.65
2018-09-19T17:55:57.325Z,6.78
2018-09-19T17:58:32.791Z,6.80
2018-09-19T18:01:08.266Z,5.97
2018-09-19T18:03:43.669Z,7.12
2018-09-19T18:06:19.735Z,5.97
2018-09-19T18:08:55.191Z,6.28
2018-09-19T18:11:30.574Z,8.63
2018-09-19T18:14:06.896Z,7.40
2018-09-19T18:16:42.293Z,7.33
2018-09-19T18:19:17.606Z,7.22
2018-09-19T18:21:53.610Z,6.45
2018-09-19T18:24:28.867Z,6.53
2018-09-19T18:27:04.827Z,7.20
2018-09-19T18:29:40.415Z,6.08
2018-09-19T18:32:16.051Z,6.58
2018-09-19T18:34:51.859Z,7.72
2018-09-19T18:37:28.078Z,7.20
2018-09-19T18:40:03.541Z,6.80
2018-09-19T18:42:39.419Z,6.20
2018-09-19T18:45:15.666Z,7.03
2018-09-19T18:47:51.283Z,6.30
2018-09-19T18:50:26.767Z,7.03
2018-09-19T18:53:02.025Z,7.70
2018-09-19T18:55:37.564Z,9.00
2018-09-19T18:58:12.935Z,8.98
2018-09-19T19:00:48.913Z,7.05
2018-09-19T19:03:24.238Z,6.92
2018-09-19T19:05:59.618Z,6.65
2018-09-19T19:08:35.146Z,7.17
2018-09-19T19:11:11.234Z,7.08
2018-09-19T19:13:46.712Z,5.95
2018-09-19T19:16:22.252Z,6.92
2018-09-19T19:18:57.759Z,7.17
2018-09-19T19:21:33.349Z,7.00
2018-09-19T19:24:08.616Z,6.65
2018-09-19T19:26:44.133Z,7.10
2018-09-19T19:29:19.687Z,6.83
2018-09-19T19:31:55.809Z,7.50
2018-09-19T19:34:31.380Z,7.45
2018-09-19T19:37:06.781Z,7.87
2018-09-19T19:39:42.777Z,7.62
2018-09-19T19:42:18.428Z,8.93
2018-09-19T19:44:53.794Z,9.03
2018-09-19T19:47:29.592Z,7.40
2018-09-19T19:50:05.399Z,7.30
2018-09-19T19:52:41.090Z,8.30
2018-09-19T19:55:16.486Z,8.38
2018-09-19T19:57:51.987Z,7.60
2018-09-19T20:00:27.490Z,7.08
2018-09-19T20:03:02.968Z,7.25
2018-09-19T20:05:38.562Z,7.70
2018-09-19T20:08:14.138Z,7.53
2018-09-19T20:10:49.830Z,7.78
2018-09-19T20:13:25.294Z,9.50
2018-09-19T20:16:00.897Z,7.72
2018-09-19T20:18:36.300Z,9.28
2018-09-19T20:21:11.558Z,8.35
2018-09-19T20:23:46.896Z,8.23
2018-09-19T20:26:22.457Z,8.30
2018-09-19T20:28:58.154Z,8.38
2018-09-19T20:31:34.402Z,8.25
2018-09-19T20:34:10.265Z,7.83
2018-09-19T20:36:45.889Z,8.35
2018-09-19T20:39:28.201Z,8.35
2018-09-19T20:42:04.179Z,8.73
2018-09-19T20:44:39.631Z,8.25
2018-09-19T20:47:17.333Z,8.00
2018-09-19T20:49:53.355Z,7.87
2018-09-19T20:52:28.611Z,7.50
2018-09-19T20:55:04.584Z,9.05
2018-09-19T20:57:40.713Z,8.55
2018-09-19T21:00:16.068Z,7.78
2018-09-19T21:02:51.477Z,8.48
2018-09-19T21:05:26.754Z,8.43
2018-09-19T21:08:02.043Z,8.08
2018-09-19T21:10:37.372Z,8.63
2018-09-19T21:13:12.672Z,8.73
2018-09-19T21:15:48.279Z,7.72
2018-09-19T21:18:23.886Z,8.33
2018-09-19T21:21:00.034Z,7.50
2018-09-19T21:23:34.696Z,7.53
2018-09-19T21:26:09.675Z,7.80
2018-09-19T21:28:45.047Z,8.25
2018-09-19T21:31:20.014Z,8.47
2018-09-19T21:33:55.528Z,7.80
2018-09-19T21:36:31.556Z,8.20
2018-09-19T21:39:08.941Z,9.17
2018-09-19T21:41:43.762Z,9.27
2018-09-19T21:44:18.908Z,8.07
2018-09-19T21:46:53.855Z,8.33
2018-09-19T21:49:28.687Z,7.73
2018-09-19T21:52:03.709Z,10.40
2018-09-19T21:54:38.830Z,9.03
2018-09-19T21:57:14.318Z,8.40
2018-09-19T21:59:49.194Z,8.80
2018-09-19T22:02:24.041Z,9.57
2018-09-19T22:04:59.200Z,9.30
2018-09-19T22:07:34.220Z,8.53
2018-09-19T22:10:09.555Z,10.10
2018-09-19T22:12:44.907Z,9.13
2018-09-19T22:15:20.207Z,8.07
2018-09-19T22:17:55.145Z,9.50
2018-09-19T22:20:30.311Z,9.23
2018-09-19T22:23:05.716Z,9.57
2018-09-19T22:25:40.437Z,10.23
2018-09-19T22:28:15.182Z,10.20
2018-09-19T22:30:56.807Z,9.07
2018-09-19T22:33:32.060Z,9.13
2018-09-19T22:36:06.898Z,8.70
2018-09-19T22:38:42.681Z,8.97
2018-09-19T22:41:19.100Z,8.77
2018-09-19T22:43:54.038Z,10.03
2018-09-19T22:46:30.297Z,10.00
2018-09-19T22:49:05.185Z,9.90
2018-09-19T22:51:39.849Z,9.03
2018-09-19T22:54:15.173Z,9.50
2018-09-19T22:56:50.078Z,8.30
2018-09-19T22:59:24.917Z,9.07
2018-09-19T23:02:00.558Z,9.93
2018-09-19T23:04:35.637Z,8.50
2018-09-19T23:07:11.145Z,8.20
2018-09-19T23:09:46.036Z,8.73
2018-09-19T23:12:21.018Z,8.40
2018-09-19T23:14:55.884Z,9.03
2018-09-19T23:17:30.715Z,8.93
2018-09-19T23:20:06.598Z,8.70
2018-09-19T23:22:41.387Z,7.73
2018-09-19T23:25:16.380Z,7.87
2018-09-19T23:27:51.356Z,9.20
2018-09-19T23:30:26.303Z,9.13
2018-09-19T23:33:01.217Z,9.70
2018-09-19T23:35:35.989Z,8.57
2018-09-19T23:38:10.889Z,10.23
2018-09-19T23:40:45.622Z,10.67
2018-09-19T23:43:20.698Z,9.73
2018-09-19T23:45:55.486Z,10.27
2018-09-19T23:48:30.358Z,9.90
2018-09-19T23:51:05.314Z,9.50
2018-09-19T23:53:40.074Z,9.87
2018-09-19T23:56:15.473Z,10.07
2018-09-19T23:58:50.602Z,10.10
